Time,TemperatureF,DewpointF,PressureIn,WindDirection,WindDirectionDegrees,WindSpeedMPH,WindSpeedGustMPH,Humidity,HourlyPrecipIn,Conditions,Clouds,dailyrainin,SoftwareType,DateUTC
2013-09-11 00:02:00,51.0,49.0,-100.00,SW,235,1.0,2.0,92,0.00,,,0.00,,2013-09-11 08:02:00,
2013-09-11 00:11:00,51.0,49.0,-100.00,SW,235,1.0,2.0,92,0.00,,,0.00,,2013-09-11 08:11:00,
2013-09-11 00:22:00,51.0,49.0,-100.00,SE,130,1.0,5.0,92,0.00,,,0.00,,2013-09-11 08:22:00,
2013-09-11 00:32:00,51.0,49.0,-100.00,SE,130,1.0,5.0,92,0.00,,,0.00,,2013-09-11 08:32:00,
2013-09-11 00:42:00,51.0,49.0,-100.00,SE,130,1.0,5.0,92,0.00,,,0.00,,2013-09-11 08:42:00,
2013-09-11 00:52:00,52.0,49.0,-100.00,SSE,160,1.0,2.0,90,0.00,,,0.00,,2013-09-11 08:52:00,
2013-09-11 01:01:00,52.0,49.0,-100.00,SSE,160,1.0,2.0,90,0.00,,,0.00,,2013-09-11 09:01:00,
2013-09-11 01:12:00,52.0,49.0,-100.00,SSE,160,1.0,2.0,90,0.00,,,0.00,,2013-09-11 09:12:00,
2013-09-11 01:21:00,51.0,49.0,-100.00,SW,235,0.0,1.0,92,0.00,,,0.00,,2013-09-11 09:21:00,
2013-09-11 01:33:00,51.0,49.0,-100.00,SW,235,0.0,1.0,92,0.00,,,0.00,,2013-09-11 09:33:00,
2013-09-11 01:43:00,51.0,49.0,-100.00,SW,235,0.0,1.0,92,0.00,,,0.00,,2013-09-11 09:43:00,
2013-09-11 01:53:00,51.0,49.0,-100.00,SE,125,0.0,4.0,93,0.01,,,0.01,,2013-09-11 09:53:00,
2013-09-11 02:03:00,51.0,49.0,-100.00,SE,125,0.0,4.0,93,0.01,,,0.01,,2013-09-11 10:03:00,
2013-09-11 02:12:00,51.0,49.0,-100.00,SE,125,0.0,4.0,93,0.01,,,0.01,,2013-09-11 10:12:00,
2013-09-11 02:23:00,51.0,49.0,-100.00,SSE,150,1.0,3.0,94,0.01,,,0.01,,2013-09-11 10:23:00,
2013-09-11 02:33:00,51.0,49.0,-100.00,SSE,150,1.0,3.0,94,0.01,,,0.01,,2013-09-11 10:33:00,
2013-09-11 02:42:00,51.0,49.0,-100.00,SSE,150,1.0,3.0,94,0.01,,,0.01,,2013-09-11 10:42:00,
2013-09-11 02:53:00,51.0,49.0,-100.00,SSW,210,0.0,4.0,95,0.01,,,0.02,,2013-09-11 10:53:00,
2013-09-11 03:03:00,51.0,49.0,-100.00,SSW,210,0.0,4.0,95,0.01,,,0.02,,2013-09-11 11:03:00,
2013-09-11 03:12:00,51.0,49.0,-100.00,SSW,210,0.0,4.0,95,0.01,,,0.02,,2013-09-11 11:12:00,
2013-09-11 03:21:00,51.0,49.0,-100.00,West,270,0.0,1.0,95,0.05,,,0.06,,2013-09-11 11:21:00,
2013-09-11 03:33:00,51.0,49.0,-100.00,West,270,0.0,1.0,95,0.05,,,0.06,,2013-09-11 11:33:00,
2013-09-11 03:42:00,51.0,49.0,-100.00,West,270,0.0,1.0,95,0.05,,,0.06,,2013-09-11 11:42:00,
2013-09-11 03:52:00,50.0,49.0,-100.00,West,275,0.0,1.0,95,0.06,,,0.08,,2013-09-11 11:52:00,
2013-09-11 04:01:00,50.0,49.0,-100.00,West,275,0.0,1.0,95,0.06,,,0.08,,2013-09-11 12:01:00,
2013-09-11 04:11:00,50.0,49.0,-100.00,West,275,0.0,1.0,95,0.06,,,0.08,,2013-09-11 12:11:00,
2013-09-11 04:21:00,50.0,49.0,-100.00,SW,215,1.0,2.0,96,0.06,,,0.12,,2013-09-11 12:21:00,
2013-09-11 04:32:00,50.0,49.0,-100.00,SW,215,1.0,2.0,96,0.06,,,0.12,,2013-09-11 12:32:00,
2013-09-11 04:42:00,50.0,49.0,-100.00,SW,215,1.0,2.0,96,0.06,,,0.12,,2013-09-11 12:42:00,
2013-09-11 04:52:00,50.0,49.0,-100.00,SSW,195,0.0,1.0,96,0.06,,,0.16,,2013-09-11 12:52:00,
2013-09-11 05:02:00,50.0,49.0,-100.00,SSW,195,0.0,1.0,96,0.06,,,0.16,,2013-09-11 13:02:00,
2013-09-11 05:12:00,50.0,49.0,-100.00,SSW,195,0.0,1.0,96,0.06,,,0.16,,2013-09-11 13:12:00,
2013-09-11 05:21:00,50.0,49.0,-100.00,NW,305,1.0,2.0,96,0.06,,,0.20,,2013-09-11 13:21:00,
2013-09-11 05:32:00,50.0,49.0,-100.00,NW,305,1.0,2.0,96,0.06,,,0.20,,2013-09-11 13:32:00,
2013-09-11 05:42:00,50.0,49.0,-100.00,NW,305,1.0,2.0,96,0.06,,,0.20,,2013-09-11 13:42:00,
2013-09-11 05:52:00,50.0,49.0,-100.00,North,5,1.0,2.0,97,0.08,,,0.24,,2013-09-11 13:52:00,
2013-09-11 06:02:00,50.0,49.0,-100.00,North,5,1.0,2.0,97,0.08,,,0.24,,2013-09-11 14:02:00,
2013-09-11 06:11:00,50.0,49.0,-100.00,North,5,1.0,2.0,97,0.08,,,0.24,,2013-09-11 14:11:00,
2013-09-11 06:21:00,50.0,49.0,-100.00,NNW,330,0.0,2.0,97,0.09,,,0.29,,2013-09-11 14:21:00,
2013-09-11 06:32:00,50.0,49.0,-100.00,NNW,330,0.0,2.0,97,0.09,,,0.29,,2013-09-11 14:32:00,
2013-09-11 06:42:00,50.0,49.0,-100.00,NNW,330,0.0,2.0,97,0.09,,,0.29,,2013-09-11 14:42:00,
2013-09-11 06:52:00,50.0,49.0,-100.00,North,5,1.0,3.0,97,0.10,,,0.34,,2013-09-11 14:52:00,
2013-09-11 07:02:00,50.0,49.0,-100.00,North,5,1.0,3.0,97,0.10,,,0.34,,2013-09-11 15:02:00,
2013-09-11 07:11:00,50.0,49.0,-100.00,North,5,1.0,3.0,97,0.10,,,0.34,,2013-09-11 15:11:00,
2013-09-11 07:22:00,50.0,49.0,-100.00,WSW,250,1.0,2.0,97,0.07,,,0.36,,2013-09-11 15:22:00,
2013-09-11 07:33:00,50.0,49.0,-100.00,WSW,250,1.0,2.0,97,0.07,,,0.36,,2013-09-11 15:33:00,
2013-09-11 07:43:00,50.0,49.0,-100.00,WSW,250,1.0,2.0,97,0.07,,,0.36,,2013-09-11 15:43:00,
2013-09-11 07:54:00,51.0,50.0,-100.00,SE,140,1.0,5.0,97,0.04,,,0.38,,2013-09-11 15:54:00,
2013-09-11 08:03:00,51.0,50.0,-100.00,SE,140,1.0,5.0,97,0.04,,,0.38,,2013-09-11 16:03:00,
2013-09-11 08:13:00,51.0,50.0,-100.00,SE,140,1.0,5.0,97,0.04,,,0.38,,2013-09-11 16:13:00,
2013-09-11 08:23:00,52.0,51.0,-100.00,ESE,110,1.0,7.0,97,0.02,,,0.38,,2013-09-11 16:23:00,
2013-09-11 08:33:00,52.0,51.0,-100.00,ESE,110,1.0,7.0,97,0.02,,,0.38,,2013-09-11 16:33:00,
2013-09-11 08:43:00,52.0,51.0,-100.00,ESE,110,1.0,7.0,97,0.02,,,0.38,,2013-09-11 16:43:00,
2013-09-11 08:52:00,52.0,51.0,-100.00,West,260,1.0,4.0,97,0.02,,,0.40,,2013-09-11 16:52:00,
2013-09-11 09:03:00,52.0,51.0,-100.00,West,260,1.0,4.0,97,0.02,,,0.40,,2013-09-11 17:03:00,
2013-09-11 09:12:00,52.0,51.0,-100.00,West,260,1.0,4.0,97,0.02,,,0.40,,2013-09-11 17:12:00,
2013-09-11 09:23:00,53.0,52.0,-100.00,ENE,60,3.0,7.0,97,0.02,,,0.40,,2013-09-11 17:23:00,
2013-09-11 09:34:00,53.0,52.0,-100.00,ENE,60,3.0,7.0,97,0.02,,,0.40,,2013-09-11 17:34:00,
2013-09-11 09:43:00,53.0,52.0,-100.00,ENE,60,3.0,7.0,97,0.02,,,0.40,,2013-09-11 17:43:00,
2013-09-11 09:52:00,53.0,52.0,-100.00,NNW,340,1.0,2.0,97,0.00,,,0.40,,2013-09-11 17:52:00,
2013-09-11 10:02:00,53.0,52.0,-100.00,NNW,340,1.0,2.0,97,0.00,,,0.40,,2013-09-11 18:02:00,
2013-09-11 10:12:00,53.0,52.0,-100.00,NNW,340,1.0,2.0,97,0.00,,,0.40,,2013-09-11 18:12:00,
2013-09-11 10:21:00,53.0,52.0,-100.00,West,280,0.0,2.0,97,0.00,,,0.40,,2013-09-11 18:21:00,
2013-09-11 10:32:00,53.0,52.0,-100.00,West,280,0.0,2.0,97,0.00,,,0.40,,2013-09-11 18:32:00,
2013-09-11 10:42:00,53.0,52.0,-100.00,West,280,0.0,2.0,97,0.00,,,0.40,,2013-09-11 18:42:00,
2013-09-11 10:52:00,53.0,52.0,-100.00,NW,320,1.0,4.0,97,0.00,,,0.40,,2013-09-11 18:52:00,
2013-09-11 11:01:00,53.0,52.0,-100.00,NW,320,1.0,4.0,97,0.00,,,0.40,,2013-09-11 19:01:00,
2013-09-11 11:11:00,53.0,52.0,-100.00,NW,320,1.0,4.0,97,0.00,,,0.40,,2013-09-11 19:11:00,
2013-09-11 11:21:00,54.0,53.0,-100.00,WSW,250,2.0,5.0,97,0.00,,,0.40,,2013-09-11 19:21:00,
2013-09-11 11:32:00,54.0,53.0,-100.00,WSW,250,2.0,5.0,97,0.00,,,0.40,,2013-09-11 19:32:00,
2013-09-11 11:42:00,54.0,53.0,-100.00,WSW,250,2.0,5.0,97,0.00,,,0.40,,2013-09-11 19:42:00,
2013-09-11 11:52:00,56.0,55.0,-100.00,NW,315,0.0,4.0,96,0.00,,,0.40,,2013-09-11 19:52:00,
2013-09-11 12:02:00,56.0,55.0,-100.00,NW,315,0.0,4.0,96,0.00,,,0.40,,2013-09-11 20:02:00,
2013-09-11 12:12:00,56.0,55.0,-100.00,NW,315,0.0,4.0,96,0.00,,,0.40,,2013-09-11 20:12:00,
2013-09-11 12:21:00,57.0,55.0,-100.00,NNE,25,2.0,4.0,95,0.00,,,0.40,,2013-09-11 20:21:00,
2013-09-11 12:32:00,57.0,55.0,-100.00,NNE,25,2.0,4.0,95,0.00,,,0.40,,2013-09-11 20:32:00,
2013-09-11 12:52:00,59.0,56.0,-100.00,NW,320,1.0,3.0,89,0.00,,,0.40,,2013-09-11 20:52:00,
2013-09-11 13:02:00,59.0,56.0,-100.00,NW,320,1.0,3.0,89,0.00,,,0.40,,2013-09-11 21:02:00,
2013-09-11 13:21:00,61.0,56.0,-100.00,North,355,1.0,3.0,83,0.00,,,0.40,,2013-09-11 21:21:00,
2013-09-11 13:34:00,61.0,56.0,-100.00,North,355,1.0,3.0,83,0.00,,,0.40,,2013-09-11 21:34:00,
2013-09-11 13:44:00,61.0,56.0,-100.00,North,355,1.0,3.0,83,0.00,,,0.40,,2013-09-11 21:44:00,
2013-09-11 13:54:00,61.0,56.0,-100.00,North,0,1.0,4.0,84,0.00,,,0.40,,2013-09-11 21:54:00,
2013-09-11 14:04:00,61.0,56.0,-100.00,North,0,1.0,4.0,84,0.00,,,0.40,,2013-09-11 22:04:00,
2013-09-11 14:13:00,61.0,56.0,-100.00,North,0,1.0,4.0,84,0.00,,,0.40,,2013-09-11 22:13:00,
2013-09-11 14:24:00,61.0,56.0,-100.00,SW,230,1.0,4.0,84,0.00,,,0.40,,2013-09-11 22:24:00,
2013-09-11 14:33:00,61.0,56.0,-100.00,SW,230,1.0,4.0,84,0.00,,,0.40,,2013-09-11 22:33:00,
2013-09-11 14:43:00,61.0,56.0,-100.00,SW,230,1.0,4.0,84,0.00,,,0.40,,2013-09-11 22:43:00,
2013-09-11 14:54:00,61.0,57.0,-100.00,NNE,25,2.0,4.0,87,0.00,,,0.40,,2013-09-11 22:54:00,
2013-09-11 15:03:00,61.0,57.0,-100.00,NNE,25,2.0,4.0,87,0.00,,,0.40,,2013-09-11 23:03:00,
2013-09-11 15:12:00,61.0,57.0,-100.00,NNE,25,2.0,4.0,87,0.00,,,0.40,,2013-09-11 23:12:00,
2013-09-11 15:22:00,60.0,57.0,-100.00,NW,325,2.0,3.0,88,0.00,,,0.40,,2013-09-11 23:22:00,
2013-09-11 15:34:00,60.0,57.0,-100.00,NW,325,2.0,3.0,88,0.00,,,0.40,,2013-09-11 23:34:00,
2013-09-11 15:42:00,60.0,57.0,-100.00,NW,325,2.0,3.0,88,0.00,,,0.40,,2013-09-11 23:42:00,
2013-09-11 15:53:00,60.0,58.0,-100.00,West,265,1.0,2.0,90,0.00,,,0.40,,2013-09-11 23:53:00,
2013-09-11 16:01:00,60.0,58.0,-100.00,West,265,1.0,2.0,90,0.00,,,0.40,,2013-09-12 00:01:00,
2013-09-11 16:11:00,60.0,58.0,-100.00,West,265,1.0,2.0,90,0.00,,,0.40,,2013-09-12 00:11:00,
2013-09-11 16:21:00,61.0,58.0,-100.00,NNE,15,1.0,3.0,91,0.00,,,0.40,,2013-09-12 00:21:00,
2013-09-11 16:32:00,61.0,58.0,-100.00,NNE,15,1.0,3.0,91,0.00,,,0.40,,2013-09-12 00:32:00,
2013-09-11 16:42:00,61.0,58.0,-100.00,NNE,15,1.0,3.0,91,0.00,,,0.40,,2013-09-12 00:42:00,
2013-09-11 16:52:00,60.0,58.0,-100.00,NNW,330,1.0,4.0,92,0.00,,,0.40,,2013-09-12 00:52:00,
2013-09-11 17:01:00,60.0,58.0,-100.00,NNW,330,1.0,4.0,92,0.00,,,0.40,,2013-09-12 01:01:00,
2013-09-11 17:11:00,60.0,58.0,-100.00,NNW,330,1.0,4.0,92,0.00,,,0.40,,2013-09-12 01:11:00,
2013-09-11 17:22:00,60.0,58.0,-100.00,North,5,1.0,6.0,94,0.00,,,0.40,,2013-09-12 01:22:00,
2013-09-11 17:32:00,60.0,58.0,-100.00,North,5,1.0,6.0,94,0.00,,,0.40,,2013-09-12 01:32:00,
2013-09-11 17:42:00,60.0,58.0,-100.00,North,5,1.0,6.0,94,0.00,,,0.40,,2013-09-12 01:42:00,
2013-09-11 17:52:00,60.0,58.0,-100.00,North,355,2.0,4.0,95,0.00,,,0.40,,2013-09-12 01:52:00,
2013-09-11 18:03:00,60.0,58.0,-100.00,North,355,2.0,4.0,95,0.00,,,0.40,,2013-09-12 02:03:00,
2013-09-11 18:12:00,60.0,58.0,-100.00,North,355,2.0,4.0,95,0.00,,,0.40,,2013-09-12 02:12:00,
2013-09-11 18:21:00,59.0,58.0,-100.00,SW,225,2.0,3.0,95,0.02,,,0.42,,2013-09-12 02:21:00,
2013-09-11 18:33:00,59.0,58.0,-100.00,SW,225,2.0,3.0,95,0.02,,,0.42,,2013-09-12 02:33:00,
2013-09-11 18:42:00,59.0,58.0,-100.00,SW,225,2.0,3.0,95,0.02,,,0.42,,2013-09-12 02:42:00,
2013-09-11 19:11:00,59.0,58.0,-100.00,NNE,30,4.0,6.0,96,0.04,,,0.44,,2013-09-12 03:11:00,
2013-09-11 19:22:00,59.0,58.0,-100.00,NNE,30,3.0,4.0,96,0.02,,,0.44,,2013-09-12 03:22:00,
2013-09-11 19:34:00,59.0,58.0,-100.00,NNE,30,3.0,4.0,96,0.02,,,0.44,,2013-09-12 03:34:00,
2013-09-11 19:45:00,59.0,58.0,-100.00,NNE,30,3.0,4.0,96,0.02,,,0.44,,2013-09-12 03:45:00,
2013-09-11 19:54:00,58.0,57.0,-100.00,WNW,285,0.0,3.0,96,0.02,,,0.46,,2013-09-12 03:54:00,
2013-09-11 20:05:00,58.0,57.0,-100.00,WNW,285,0.0,3.0,96,0.02,,,0.46,,2013-09-12 04:05:00,
2013-09-11 20:14:00,58.0,57.0,-100.00,WNW,285,0.0,3.0,96,0.02,,,0.46,,2013-09-12 04:14:00,
2013-09-11 20:23:00,57.0,56.0,-100.00,WSW,255,2.0,4.0,96,0.02,,,0.46,,2013-09-12 04:23:00,
2013-09-11 20:34:00,57.0,56.0,-100.00,WSW,255,2.0,4.0,96,0.02,,,0.46,,2013-09-12 04:34:00,
2013-09-11 20:44:00,57.0,56.0,-100.00,WSW,255,2.0,4.0,96,0.02,,,0.46,,2013-09-12 04:44:00,
2013-09-11 20:54:00,57.0,56.0,-100.00,NNW,345,0.0,1.0,96,0.02,,,0.48,,2013-09-12 04:54:00,
2013-09-11 21:03:00,57.0,56.0,-100.00,NNW,345,0.0,1.0,96,0.02,,,0.48,,2013-09-12 05:03:00,
2013-09-11 21:13:00,57.0,56.0,-100.00,NNW,345,0.0,1.0,96,0.02,,,0.48,,2013-09-12 05:13:00,
2013-09-11 21:22:00,57.0,56.0,-100.00,SSE,155,1.0,5.0,97,0.04,,,0.50,,2013-09-12 05:22:00,
2013-09-11 21:34:00,57.0,56.0,-100.00,SSE,155,1.0,5.0,97,0.04,,,0.50,,2013-09-12 05:34:00,
2013-09-11 21:43:00,57.0,56.0,-100.00,SSE,155,1.0,5.0,97,0.04,,,0.50,,2013-09-12 05:43:00,
2013-09-11 21:52:00,57.0,56.0,-100.00,NNE,30,1.0,2.0,97,0.04,,,0.52,,2013-09-12 05:52:00,
2013-09-11 22:01:00,57.0,56.0,-100.00,NNE,30,1.0,2.0,97,0.04,,,0.52,,2013-09-12 06:01:00,
2013-09-11 22:12:00,57.0,56.0,-100.00,NNE,30,1.0,2.0,97,0.04,,,0.52,,2013-09-12 06:12:00,
2013-09-11 22:21:00,56.0,55.0,-100.00,North,0,1.0,8.0,97,0.05,,,0.55,,2013-09-12 06:21:00,
2013-09-11 22:33:00,56.0,55.0,-100.00,North,0,1.0,8.0,97,0.05,,,0.55,,2013-09-12 06:33:00,
2013-09-11 22:42:00,56.0,55.0,-100.00,North,0,1.0,8.0,97,0.05,,,0.55,,2013-09-12 06:42:00,
2013-09-11 22:52:00,55.0,54.0,-100.00,West,265,0.0,2.0,97,0.10,,,0.62,,2013-09-12 06:52:00,
2013-09-11 23:02:00,55.0,54.0,-100.00,West,265,0.0,2.0,97,0.10,,,0.62,,2013-09-12 07:02:00,
2013-09-11 23:12:00,55.0,54.0,-100.00,West,265,0.0,2.0,97,0.10,,,0.62,,2013-09-12 07:12:00,
2013-09-11 23:21:00,55.0,54.0,-100.00,WSW,245,0.0,2.0,97,0.13,,,0.68,,2013-09-12 07:21:00,
2013-09-11 23:32:00,55.0,54.0,-100.00,WSW,245,0.0,2.0,97,0.13,,,0.68,,2013-09-12 07:32:00,
2013-09-11 23:43:00,55.0,54.0,-100.00,WSW,245,0.0,2.0,97,0.13,,,0.68,,2013-09-12 07:43:00,
2013-09-11 23:52:00,54.0,53.0,-100.00,West,265,0.0,3.0,97,0.10,,,0.74,,2013-09-12 07:52:00,